Observations for GUERNSEY AIRPORT, United Kingdom (EGJB)

EGJB 200620Z 04007KT CAVOK 12/07 Q1029  
EGJB 200550Z 05009KT CAVOK 12/06 Q1029  
EGJB 200520Z 06009KT CAVOK 11/06 Q1029  
EGJB 200450Z 05009KT CAVOK 11/05 Q1029  
EGJB 200420Z 04008KT CAVOK 11/06 Q1028  
EGJB 200350Z 05008KT CAVOK 12/05 Q1028  
EGJB 200320Z 04007KT CAVOK 12/05 Q1029  
EGJB 200250Z 03008KT CAVOK 11/07 Q1029  
EGJB 200150Z 04007KT CAVOK 11/07 Q1029  
EGJB 200050Z 02006KT CAVOK 10/08 Q1029  
EGJB 192350Z 03006KT CAVOK 11/07 Q1029  
EGJB 192250Z 04005KT CAVOK 11/07 Q1029  
EGJB 192150Z 03006KT CAVOK 11/08 Q1029  
EGJB 192050Z 06007KT CAVOK 14/06 Q1029  
EGJB 191950Z 06007KT CAVOK 14/07 Q1029  
EGJB 191920Z 06007KT CAVOK 14/07 Q1028  
EGJB 191850Z 06007KT CAVOK 15/07 Q1028  
EGJB 191820Z 06008KT CAVOK 15/07 Q1027  
EGJB 191750Z 06008KT CAVOK 16/07 Q1027  
EGJB 191720Z 07009KT 020V090 CAVOK 17/07 Q1027  
EGJB 191650Z 06010KT CAVOK 16/06 Q1027  
EGJB 191620Z 05009KT CAVOK 16/07 Q1027  
EGJB 191550Z 06010KT CAVOK 17/08 Q1026  
EGJB 191520Z 05008KT CAVOK 18/09 Q1026  
EGJB 191450Z 05009KT CAVOK 18/08 Q1026  
EGJB 191420Z 05008KT 360V080 CAVOK 18/09 Q1026  
EGJB 191350Z 03007KT CAVOK 18/09 Q1027  
EGJB 191320Z 04006KT 350V080 CAVOK 17/10 Q1027  
EGJB 191250Z 04008KT CAVOK 18/11 Q1026  
EGJB 191220Z 04008KT CAVOK 17/10 Q1026  
EGJB 191150Z 04007KT 010V090 CAVOK 17/10 Q1026  
EGJB 191120Z 04007KT 020V080 CAVOK 17/09 Q1026  
EGJB 191050Z 04007KT CAVOK 17/10 Q1026  
EGJB 191020Z 04007KT CAVOK 17/10 Q1026  
EGJB 190950Z 06007KT CAVOK 16/09 Q1026  
EGJB 190920Z 06007KT 020V090 CAVOK 16/09 Q1025  
EGJB 190850Z 06008KT CAVOK 16/09 Q1025  
EGJB 190820Z 06008KT CAVOK 15/09 Q1025  
EGJB 190750Z 06009KT CAVOK 14/09 Q1025  
EGJB 190720Z 06009KT 9000 NSC 13/08 Q1025   
EGJB 190650Z 05007KT 9000 NSC 13/09 Q1024   
EGJB 190620Z 06007KT 9000 NSC 12/08 Q1024   
EGJB 190550Z 06007KT 9000 NSC 11/08 Q1024